AFR78RT LFPG-LFLL
Flight info
| Callsign | AFR78RT |
|---|---|
| Flight time | N/A |
| Altitude | 27000 |
| Route | OKASI DCT OKEKO DCT OKEPI DCT MOU |
| Aircraft | A320/M-SDE2E3FGIJ1RWY/HB1 |
Departure
| Time | N/A |
|---|---|
| Airport | Charles de Gaulle International Airport (LFPG) |
Arrival
| Time | 2026-04-28 11:18 |
|---|---|
| Airport | Lyon Saint-Exupéry Airport (LFLL) |
| Time | Latitude | Longitude | Altitude | Speed | Heading |
|---|---|---|---|---|---|
| 2026-04-28 10:44 | 47.96842 | 2.85226 | 27048 ft | 469 kts | 164° |
| 2026-04-28 10:44 | 47.93822 | 2.87051 | 27067 ft | 468 kts | 164° |
| 2026-04-28 10:44 | 47.90807 | 2.88898 | 27066 ft | 468 kts | 163° |
| 2026-04-28 10:45 | 47.87797 | 2.90774 | 27059 ft | 469 kts | 163° |
| 2026-04-28 10:45 | 47.84799 | 2.92673 | 27057 ft | 469 kts | 163° |
| 2026-04-28 10:45 | 47.81801 | 2.94587 | 27055 ft | 469 kts | 163° |
| 2026-04-28 10:45 | 47.78802 | 2.96503 | 27038 ft | 468 kts | 163° |
| 2026-04-28 10:46 | 47.75809 | 2.98407 | 27012 ft | 468 kts | 163° |
| 2026-04-28 10:46 | 47.72816 | 3.00297 | 27025 ft | 467 kts | 164° |
| 2026-04-28 10:46 | 47.69820 | 3.02182 | 27033 ft | 467 kts | 164° |
| 2026-04-28 10:46 | 47.66827 | 3.04058 | 27032 ft | 467 kts | 164° |
| 2026-04-28 10:47 | 47.63836 | 3.05932 | 27035 ft | 467 kts | 164° |
| 2026-04-28 10:47 | 47.60846 | 3.07803 | 27037 ft | 466 kts | 164° |
| 2026-04-28 10:47 | 47.57858 | 3.09668 | 27035 ft | 466 kts | 164° |
| 2026-04-28 10:47 | 47.54866 | 3.11531 | 27017 ft | 466 kts | 164° |
| 2026-04-28 10:48 | 47.51877 | 3.13393 | 27020 ft | 466 kts | 164° |
| 2026-04-28 10:48 | 47.48887 | 3.15255 | 27018 ft | 466 kts | 164° |
| 2026-04-28 10:48 | 47.45898 | 3.17115 | 27015 ft | 466 kts | 164° |
| 2026-04-28 10:48 | 47.42910 | 3.18971 | 27017 ft | 466 kts | 164° |
| 2026-04-28 10:49 | 47.39919 | 3.20829 | 27016 ft | 466 kts | 164° |
| 2026-04-28 10:49 | 47.36929 | 3.22685 | 27017 ft | 466 kts | 164° |
| 2026-04-28 10:49 | 47.33938 | 3.24540 | 26987 ft | 466 kts | 164° |
| 2026-04-28 10:49 | 47.30951 | 3.26385 | 26993 ft | 466 kts | 164° |
| 2026-04-28 10:50 | 47.27958 | 3.28228 | 26998 ft | 466 kts | 164° |
| 2026-04-28 10:50 | 47.24968 | 3.30068 | 27003 ft | 466 kts | 164° |
| 2026-04-28 10:50 | 47.21975 | 3.31910 | 26993 ft | 466 kts | 164° |
| 2026-04-28 10:50 | 47.18985 | 3.33754 | 26999 ft | 467 kts | 164° |
| 2026-04-28 10:51 | 47.15988 | 3.35602 | 27005 ft | 467 kts | 164° |
| 2026-04-28 10:51 | 47.12993 | 3.37442 | 26990 ft | 467 kts | 164° |
| 2026-04-28 10:51 | 47.09992 | 3.39284 | 27011 ft | 468 kts | 164° |
| 2026-04-28 10:51 | 47.06986 | 3.41123 | 27016 ft | 468 kts | 164° |
| 2026-04-28 10:52 | 47.03982 | 3.42959 | 27022 ft | 468 kts | 164° |
| 2026-04-28 10:52 | 47.00973 | 3.44797 | 27024 ft | 468 kts | 164° |
| 2026-04-28 10:52 | 46.97970 | 3.46629 | 27030 ft | 468 kts | 164° |
| 2026-04-28 10:52 | 46.94959 | 3.48462 | 27030 ft | 468 kts | 164° |
| 2026-04-28 10:53 | 46.91954 | 3.50297 | 27015 ft | 451 kts | 164° |
| 2026-04-28 10:53 | 46.89135 | 3.52032 | 27029 ft | 429 kts | 164° |
| 2026-04-28 10:53 | 46.86464 | 3.53671 | 27028 ft | 410 kts | 164° |
| 2026-04-28 10:53 | 46.83863 | 3.55255 | 27030 ft | 398 kts | 165° |
| 2026-04-28 10:54 | 46.81318 | 3.56788 | 27026 ft | 394 kts | 165° |
| 2026-04-28 10:54 | 46.78787 | 3.58302 | 27023 ft | 393 kts | 165° |
| 2026-04-28 10:54 | 46.76274 | 3.59804 | 26779 ft | 388 kts | 165° |
| 2026-04-28 10:54 | 46.73793 | 3.61288 | 26344 ft | 383 kts | 165° |
| 2026-04-28 10:55 | 46.71342 | 3.62760 | 25931 ft | 379 kts | 165° |
| 2026-04-28 10:55 | 46.68913 | 3.64201 | 25466 ft | 376 kts | 165° |
| 2026-04-28 10:55 | 46.66489 | 3.65579 | 25018 ft | 372 kts | 165° |
| 2026-04-28 10:55 | 46.64077 | 3.66919 | 24553 ft | 370 kts | 165° |
| 2026-04-28 10:56 | 46.61672 | 3.68240 | 24084 ft | 368 kts | 165° |
| 2026-04-28 10:56 | 46.59283 | 3.69547 | 23609 ft | 367 kts | 165° |
| 2026-04-28 10:56 | 46.56900 | 3.70852 | 23078 ft | 365 kts | 165° |
| 2026-04-28 10:56 | 46.54539 | 3.72154 | 22599 ft | 362 kts | 165° |
| 2026-04-28 10:57 | 46.52198 | 3.73456 | 22130 ft | 359 kts | 165° |
| 2026-04-28 10:57 | 46.49871 | 3.74755 | 21654 ft | 357 kts | 164° |
| 2026-04-28 10:57 | 46.47563 | 3.76045 | 21231 ft | 354 kts | 164° |
| 2026-04-28 10:57 | 46.45269 | 3.77324 | 20782 ft | 353 kts | 164° |
| 2026-04-28 10:58 | 46.42984 | 3.78594 | 20337 ft | 351 kts | 164° |
| 2026-04-28 10:58 | 46.40703 | 3.79854 | 19886 ft | 350 kts | 164° |
| 2026-04-28 10:58 | 46.38439 | 3.81149 | 19410 ft | 351 kts | 159° |
| 2026-04-28 10:58 | 46.36344 | 3.83019 | 18963 ft | 358 kts | 145° |
| 2026-04-28 10:59 | 46.34595 | 3.85602 | 18675 ft | 361 kts | 131° |
| 2026-04-28 10:59 | 46.33075 | 3.88480 | 18381 ft | 360 kts | 131° |
| 2026-04-28 10:59 | 46.31561 | 3.91349 | 18051 ft | 358 kts | 131° |
| 2026-04-28 10:59 | 46.30049 | 3.94204 | 17736 ft | 356 kts | 131° |
| 2026-04-28 11:00 | 46.28553 | 3.97018 | 17452 ft | 350 kts | 130° |
| 2026-04-28 11:00 | 46.27080 | 3.99788 | 17155 ft | 345 kts | 130° |
| 2026-04-28 11:00 | 46.25630 | 4.02511 | 16881 ft | 340 kts | 130° |
| 2026-04-28 11:00 | 46.24197 | 4.05203 | 16598 ft | 337 kts | 130° |
| 2026-04-28 11:01 | 46.22773 | 4.07875 | 16318 ft | 335 kts | 130° |
| 2026-04-28 11:01 | 46.21355 | 4.10532 | 16038 ft | 333 kts | 130° |
| 2026-04-28 11:01 | 46.19942 | 4.13175 | 15760 ft | 332 kts | 130° |
| 2026-04-28 11:01 | 46.18536 | 4.15804 | 15474 ft | 330 kts | 130° |
| 2026-04-28 11:02 | 46.17134 | 4.18419 | 15203 ft | 329 kts | 129° |
| 2026-04-28 11:02 | 46.15739 | 4.21022 | 14922 ft | 327 kts | 129° |
| 2026-04-28 11:02 | 46.14351 | 4.23612 | 14656 ft | 326 kts | 129° |
| 2026-04-28 11:02 | 46.12971 | 4.26188 | 14385 ft | 324 kts | 129° |
| 2026-04-28 11:03 | 46.11597 | 4.28753 | 14111 ft | 323 kts | 129° |
| 2026-04-28 11:03 | 46.10229 | 4.31306 | 13846 ft | 321 kts | 129° |
| 2026-04-28 11:03 | 46.08864 | 4.33847 | 13552 ft | 320 kts | 129° |
| 2026-04-28 11:03 | 46.07504 | 4.36372 | 13286 ft | 318 kts | 130° |
| 2026-04-28 11:04 | 46.06160 | 4.38862 | 13016 ft | 312 kts | 130° |
| 2026-04-28 11:04 | 46.04839 | 4.41308 | 12758 ft | 307 kts | 130° |
| 2026-04-28 11:04 | 46.03531 | 4.43728 | 12507 ft | 305 kts | 130° |
| 2026-04-28 11:04 | 46.02229 | 4.46137 | 12244 ft | 304 kts | 130° |
| 2026-04-28 11:05 | 46.00934 | 4.48538 | 11983 ft | 303 kts | 130° |
| 2026-04-28 11:05 | 45.99688 | 4.50988 | 11742 ft | 304 kts | 124° |
| 2026-04-28 11:05 | 45.98583 | 4.53576 | 11490 ft | 303 kts | 124° |
| 2026-04-28 11:05 | 45.97477 | 4.56153 | 11233 ft | 302 kts | 124° |
| 2026-04-28 11:06 | 45.96324 | 4.58669 | 10973 ft | 300 kts | 131° |
| 2026-04-28 11:06 | 45.94844 | 4.60739 | 10724 ft | 296 kts | 145° |
| 2026-04-28 11:06 | 45.93083 | 4.62229 | 10481 ft | 293 kts | 156° |
| 2026-04-28 11:06 | 45.91263 | 4.63506 | 10253 ft | 288 kts | 156° |
| 2026-04-28 11:07 | 45.89478 | 4.64764 | 9992 ft | 284 kts | 156° |
| 2026-04-28 11:07 | 45.87713 | 4.66008 | 9744 ft | 282 kts | 156° |
| 2026-04-28 11:07 | 45.85953 | 4.67243 | 9502 ft | 281 kts | 156° |
| 2026-04-28 11:07 | 45.84196 | 4.68473 | 9259 ft | 281 kts | 156° |
| 2026-04-28 11:08 | 45.82442 | 4.69699 | 9035 ft | 280 kts | 156° |
| 2026-04-28 11:08 | 45.80690 | 4.70925 | 8799 ft | 280 kts | 156° |
| 2026-04-28 11:08 | 45.78945 | 4.72149 | 8551 ft | 279 kts | 156° |
| 2026-04-28 11:08 | 45.77207 | 4.73368 | 8331 ft | 277 kts | 156° |
| 2026-04-28 11:09 | 45.75477 | 4.74578 | 8100 ft | 276 kts | 156° |
| 2026-04-28 11:09 | 45.73749 | 4.75783 | 7867 ft | 276 kts | 156° |
| 2026-04-28 11:09 | 45.72027 | 4.76982 | 7640 ft | 275 kts | 156° |
| 2026-04-28 11:09 | 45.70309 | 4.78180 | 7403 ft | 275 kts | 156° |
| 2026-04-28 11:10 | 45.68591 | 4.79379 | 7169 ft | 275 kts | 156° |
| 2026-04-28 11:10 | 45.66874 | 4.80572 | 6936 ft | 274 kts | 156° |
| 2026-04-28 11:10 | 45.65156 | 4.81763 | 6700 ft | 275 kts | 155° |
| 2026-04-28 11:10 | 45.63441 | 4.82957 | 6474 ft | 274 kts | 155° |
| 2026-04-28 11:11 | 45.61727 | 4.84148 | 6241 ft | 274 kts | 155° |
| 2026-04-28 11:11 | 45.60074 | 4.85487 | 5995 ft | 274 kts | 144° |
| 2026-04-28 11:11 | 45.58705 | 4.87369 | 5756 ft | 275 kts | 129° |
| 2026-04-28 11:11 | 45.57665 | 4.89657 | 5526 ft | 275 kts | 122° |
| 2026-04-28 11:12 | 45.56674 | 4.91990 | 5290 ft | 274 kts | 122° |
| 2026-04-28 11:12 | 45.55683 | 4.94312 | 5051 ft | 273 kts | 123° |
| 2026-04-28 11:12 | 45.54700 | 4.96606 | 4866 ft | 266 kts | 123° |
| 2026-04-28 11:12 | 45.53755 | 4.98804 | 4738 ft | 254 kts | 123° |
| 2026-04-28 11:13 | 45.52909 | 5.00946 | 4560 ft | 245 kts | 113° |
| 2026-04-28 11:13 | 45.52522 | 5.03273 | 4358 ft | 240 kts | 94° |
| 2026-04-28 11:13 | 45.52601 | 5.05617 | 4275 ft | 241 kts | 85° |
| 2026-04-28 11:13 | 45.52959 | 5.07953 | 4079 ft | 241 kts | 66° |
| 2026-04-28 11:14 | 45.53934 | 5.09855 | 3867 ft | 238 kts | 40° |
| 2026-04-28 11:14 | 45.55355 | 5.10996 | 3629 ft | 234 kts | 15° |
| 2026-04-28 11:14 | 45.56943 | 5.11201 | 3406 ft | 228 kts | 354° |
| 2026-04-28 11:14 | 45.58481 | 5.11012 | 3305 ft | 215 kts | 354° |
| 2026-04-28 11:15 | 45.59959 | 5.10830 | 3003 ft | 211 kts | 353° |
| 2026-04-28 11:15 | 45.60940 | 5.10711 | 2816 ft | 207 kts | 354° |
| 2026-04-28 11:15 | 45.62796 | 5.10486 | 2462 ft | 194 kts | 354° |
| 2026-04-28 11:15 | 45.63677 | 5.10380 | 2295 ft | 182 kts | 354° |
| 2026-04-28 11:16 | 45.65258 | 5.10188 | 2007 ft | 162 kts | 355° |
| 2026-04-28 11:16 | 45.66363 | 5.10054 | 1799 ft | 155 kts | 355° |
| 2026-04-28 11:16 | 45.67075 | 5.09967 | 1660 ft | 150 kts | 355° |
| 2026-04-28 11:16 | 45.68110 | 5.09842 | 1451 ft | 148 kts | 355° |
| 2026-04-28 11:17 | 45.69133 | 5.09717 | 1255 ft | 147 kts | 355° |
| 2026-04-28 11:17 | 45.70156 | 5.09593 | 1064 ft | 147 kts | 355° |
| 2026-04-28 11:17 | 45.71184 | 5.09468 | 872 ft | 149 kts | 354° |
| 2026-04-28 11:17 | 45.72151 | 5.09346 | 787 ft | 111 kts | 355° |
| 2026-04-28 11:18 | 45.72643 | 5.09293 | 780 ft | 48 kts | 355° |
| 2026-04-28 11:18 | 45.72870 | 5.09156 | 777 ft | 33 kts | 334° |
| 2026-04-28 11:18 | 45.72963 | 5.08995 | 781 ft | 14 kts | 278° |
| 2026-04-28 11:18 | 45.72960 | 5.08878 | 785 ft | 10 kts | 264° |
| 2026-04-28 11:19 | 45.72954 | 5.08791 | 786 ft | 8 kts | 264° |
| 2026-04-28 11:19 | 45.72949 | 5.08725 | 786 ft | 6 kts | 265° |
| 2026-04-28 11:19 | 45.72945 | 5.08665 | 785 ft | 6 kts | 265° |
| 2026-04-28 11:19 | 45.72942 | 5.08604 | 784 ft | 6 kts | 265° |
| 2026-04-28 11:20 | 45.72934 | 5.08477 | 783 ft | 17 kts | 265° |
| 2026-04-28 11:20 | 45.72875 | 5.08351 | 783 ft | 16 kts | 201° |
| 2026-04-28 11:20 | 45.72772 | 5.08364 | 784 ft | 14 kts | 173° |
| 2026-04-28 11:20 | 45.72697 | 5.08376 | 785 ft | 11 kts | 174° |
| 2026-04-28 11:21 | 45.72632 | 5.08384 | 786 ft | 12 kts | 175° |
| 2026-04-28 11:21 | 45.72530 | 5.08395 | 787 ft | 15 kts | 176° |
| 2026-04-28 11:21 | 45.72425 | 5.08406 | 789 ft | 15 kts | 176° |
| 2026-04-28 11:21 | 45.72315 | 5.08417 | 790 ft | 16 kts | 176° |
| 2026-04-28 11:22 | 45.72256 | 5.08378 | 791 ft | 8 kts | 259° |
| 2026-04-28 11:22 | 45.72249 | 5.08326 | 791 ft | 4 kts | 259° |
| 2026-04-28 11:22 | 45.72241 | 5.08291 | 791 ft | 3 kts | 250° |
| 2026-04-28 11:22 | 45.72230 | 5.08247 | 791 ft | 8 kts | 249° |
| 2026-04-28 11:23 | 45.72218 | 5.08202 | 791 ft | 1 kts | 248° |
| 2026-04-28 11:23 | 45.72216 | 5.08193 | 791 ft | 1 kts | 248° |
| 2026-04-28 11:23 | 45.72214 | 5.08188 | 791 ft | 0 kts | 248° |
| 2026-04-28 11:24 | 45.72223 | 5.08182 | 790 ft | 0 kts | 271° |